LFMK/CCF METAR and TAF weather

Enter ICAO airport designator
Station Type Date Time Source
LFMK METAR 2020/01/24 09:30 UTC NOAA

LFMK 240930Z AUTO 16003KT 110V200 9999 BKN006 BKN011 07/06 Q1021 TEMPO 4000 BR BKN004


Station Type Date Time Source
LFMK Decoded METAR 2020/01/24 09:30 UTC NOAA

Carcassonne, France (LFMK) 43-13N 002-19E 130M
Jan 24, 2020 - 04:30 AM EST / 2020.01.24 0930 UTC
Wind: from the SSE (160 degrees) at 3 MPH (3 KT) (direction variable):0
Visibility: greater than 7 mile(s):0
Sky conditions: mostly cloudy
Temperature: 44 F (7 C)
Dew Point: 42 F (6 C)
Relative Humidity: 93%
Pressure (altimeter): 30.15 in. Hg (1021 hPa)
ob: LFMK 240930Z AUTO 16003KT 110V200 9999 BKN006 BKN011 07/06 Q1021 TEMPO 4000 BR BKN004
cycle: 9

Station Type Date Time Source
LFMK TAF 2020/01/24 09:21 UTC NOAA

TAF LFMK 240800Z 2409/2509 12012KT CAVOK
TEMPO 2409/2412 4000 BR BKN004
TEMPO 2416/2509 RA OVC010

Example: see airport list